sensor_id;sensor_type;location;lat;lon;timestamp;temperature;humidity
53286;DHT22;39171;45.550;12.074;2023-04-25T00:03:17;17.40;77.20
53286;DHT22;39171;45.550;12.074;2023-04-25T00:09:19;17.40;77.10
53286;DHT22;39171;45.550;12.074;2023-04-25T00:15:20;17.40;77.00
53286;DHT22;39171;45.550;12.074;2023-04-25T00:21:22;17.40;77.00
53286;DHT22;39171;45.550;12.074;2023-04-25T00:27:25;17.40;77.10
53286;DHT22;39171;45.550;12.074;2023-04-25T00:33:26;17.40;77.10
53286;DHT22;39171;45.550;12.074;2023-04-25T00:39:27;17.40;77.20
53286;DHT22;39171;45.550;12.074;2023-04-25T00:45:29;17.40;77.20
53286;DHT22;39171;45.550;12.074;2023-04-25T00:51:30;17.40;77.10
53286;DHT22;39171;45.550;12.074;2023-04-25T00:57:33;17.40;77.10
53286;DHT22;39171;45.550;12.074;2023-04-25T01:03:36;17.30;77.20
53286;DHT22;39171;45.550;12.074;2023-04-25T01:09:41;17.30;77.10
53286;DHT22;39171;45.550;12.074;2023-04-25T01:15:42;17.30;77.20
53286;DHT22;39171;45.550;12.074;2023-04-25T01:21:45;17.30;77.20
53286;DHT22;39171;45.550;12.074;2023-04-25T01:27:46;17.30;77.30
53286;DHT22;39171;45.550;12.074;2023-04-25T01:33:48;17.30;77.30
53286;DHT22;39171;45.550;12.074;2023-04-25T01:39:49;17.30;77.50
53286;DHT22;39171;45.550;12.074;2023-04-25T01:45:51;17.30;77.50
53286;DHT22;39171;45.550;12.074;2023-04-25T01:51:53;17.30;77.50
53286;DHT22;39171;45.550;12.074;2023-04-25T01:57:54;17.30;77.40
53286;DHT22;39171;45.550;12.074;2023-04-25T02:04:03;17.30;77.60
53286;DHT22;39171;45.550;12.074;2023-04-25T02:10:09;17.20;77.60
53286;DHT22;39171;45.550;12.074;2023-04-25T02:16:20;17.20;77.60
53286;DHT22;39171;45.550;12.074;2023-04-25T02:22:21;17.30;77.70
53286;DHT22;39171;45.550;12.074;2023-04-25T02:28:23;17.20;77.70
53286;DHT22;39171;45.550;12.074;2023-04-25T02:34:24;17.20;77.80
53286;DHT22;39171;45.550;12.074;2023-04-25T02:40:26;17.20;77.80
53286;DHT22;39171;45.550;12.074;2023-04-25T02:46:29;17.20;77.80
53286;DHT22;39171;45.550;12.074;2023-04-25T02:52:30;17.20;77.90
53286;DHT22;39171;45.550;12.074;2023-04-25T02:58:43;17.20;77.90
53286;DHT22;39171;45.550;12.074;2023-04-25T03:04:45;17.20;77.90
53286;DHT22;39171;45.550;12.074;2023-04-25T03:10:47;17.20;77.90
53286;DHT22;39171;45.550;12.074;2023-04-25T03:16:50;17.20;78.00
53286;DHT22;39171;45.550;12.074;2023-04-25T03:22:52;17.20;78.00
53286;DHT22;39171;45.550;12.074;2023-04-25T03:28:53;17.20;78.00
53286;DHT22;39171;45.550;12.074;2023-04-25T03:34:55;17.20;78.00
53286;DHT22;39171;45.550;12.074;2023-04-25T03:41:00;17.20;78.00
53286;DHT22;39171;45.550;12.074;2023-04-25T03:47:12;17.20;78.00
53286;DHT22;39171;45.550;12.074;2023-04-25T03:53:14;17.20;78.00
53286;DHT22;39171;45.550;12.074;2023-04-25T03:59:35;17.20;78.00
53286;DHT22;39171;45.550;12.074;2023-04-25T04:05:38;17.20;78.10
53286;DHT22;39171;45.550;12.074;2023-04-25T04:11:41;17.20;78.20
53286;DHT22;39171;45.550;12.074;2023-04-25T04:17:43;17.20;78.30
53286;DHT22;39171;45.550;12.074;2023-04-25T04:23:44;17.20;78.40
53286;DHT22;39171;45.550;12.074;2023-04-25T04:29:46;17.20;78.40
53286;DHT22;39171;45.550;12.074;2023-04-25T04:35:51;17.20;78.40
53286;DHT22;39171;45.550;12.074;2023-04-25T04:41:53;17.10;78.30
53286;DHT22;39171;45.550;12.074;2023-04-25T04:48:13;17.10;78.40
53286;DHT22;39171;45.550;12.074;2023-04-25T04:54:53;17.10;78.50
53286;DHT22;39171;45.550;12.074;2023-04-25T05:01:18;17.10;78.50
53286;DHT22;39171;45.550;12.074;2023-04-25T05:07:42;17.10;79.00
53286;DHT22;39171;45.550;12.074;2023-04-25T05:13:57;17.10;79.10
53286;DHT22;39171;45.550;12.074;2023-04-25T05:20:17;17.10;79.60
53286;DHT22;39171;45.550;12.074;2023-04-25T05:26:25;17.10;79.70
53286;DHT22;39171;45.550;12.074;2023-04-25T05:32:42;17.10;79.50
53286;DHT22;39171;45.550;12.074;2023-04-25T05:38:43;17.10;79.30
53286;DHT22;39171;45.550;12.074;2023-04-25T05:44:56;17.10;79.20
53286;DHT22;39171;45.550;12.074;2023-04-25T05:51:08;17.10;79.10
53286;DHT22;39171;45.550;12.074;2023-04-25T05:57:26;17.10;79.30
53286;DHT22;39171;45.550;12.074;2023-04-25T06:03:29;17.10;79.00
53286;DHT22;39171;45.550;12.074;2023-04-25T06:09:32;17.10;79.20
53286;DHT22;39171;45.550;12.074;2023-04-25T06:15:33;17.00;79.10
53286;DHT22;39171;45.550;12.074;2023-04-25T06:21:36;17.10;79.00
53286;DHT22;39171;45.550;12.074;2023-04-25T06:27:38;17.10;79.10
53286;DHT22;39171;45.550;12.074;2023-04-25T06:33:40;17.10;79.00
53286;DHT22;39171;45.550;12.074;2023-04-25T06:39:41;17.00;78.90
53286;DHT22;39171;45.550;12.074;2023-04-25T06:45:42;17.00;79.00
53286;DHT22;39171;45.550;12.074;2023-04-25T06:51:44;17.00;79.20
53286;DHT22;39171;45.550;12.074;2023-04-25T06:57:46;17.00;79.10
53286;DHT22;39171;45.550;12.074;2023-04-25T07:04:13;17.00;79.20
53286;DHT22;39171;45.550;12.074;2023-04-25T07:10:20;17.00;79.30
53286;DHT22;39171;45.550;12.074;2023-04-25T07:16:23;17.00;79.70
53286;DHT22;39171;45.550;12.074;2023-04-25T07:22:25;17.00;79.50
53286;DHT22;39171;45.550;12.074;2023-04-25T07:28:27;17.00;79.50
53286;DHT22;39171;45.550;12.074;2023-04-25T07:34:28;17.00;79.40
53286;DHT22;39171;45.550;12.074;2023-04-25T07:40:32;17.00;79.50
53286;DHT22;39171;45.550;12.074;2023-04-25T07:46:39;17.00;79.50
53286;DHT22;39171;45.550;12.074;2023-04-25T07:52:41;16.90;79.70
53286;DHT22;39171;45.550;12.074;2023-04-25T07:58:52;17.00;79.60
53286;DHT22;39171;45.550;12.074;2023-04-25T08:04:54;16.90;79.70
53286;DHT22;39171;45.550;12.074;2023-04-25T08:10:56;16.90;79.60
53286;DHT22;39171;45.550;12.074;2023-04-25T08:16:57;16.90;79.80
53286;DHT22;39171;45.550;12.074;2023-04-25T08:23:00;16.90;79.70
53286;DHT22;39171;45.550;12.074;2023-04-25T08:29:21;16.90;80.00
53286;DHT22;39171;45.550;12.074;2023-04-25T08:35:25;16.90;79.80
53286;DHT22;39171;45.550;12.074;2023-04-25T08:41:27;16.90;79.70
53286;DHT22;39171;45.550;12.074;2023-04-25T08:47:28;16.90;79.70
53286;DHT22;39171;45.550;12.074;2023-04-25T08:53:32;16.90;79.80
53286;DHT22;39171;45.550;12.074;2023-04-25T08:59:35;16.90;79.70
53286;DHT22;39171;45.550;12.074;2023-04-25T09:05:41;16.90;79.60
53286;DHT22;39171;45.550;12.074;2023-04-25T09:11:43;16.90;79.30
53286;DHT22;39171;45.550;12.074;2023-04-25T09:17:48;16.90;79.50
53286;DHT22;39171;45.550;12.074;2023-04-25T09:23:56;16.80;78.30
53286;DHT22;39171;45.550;12.074;2023-04-25T09:30:00;16.90;77.60
53286;DHT22;39171;45.550;12.074;2023-04-25T09:36:08;16.80;76.70
53286;DHT22;39171;45.550;12.074;2023-04-25T09:42:32;16.80;77.10
53286;DHT22;39171;45.550;12.074;2023-04-25T09:48:35;16.80;77.40
53286;DHT22;39171;45.550;12.074;2023-04-25T09:54:38;16.90;77.70
53286;DHT22;39171;45.550;12.074;2023-04-25T10:00:50;16.90;78.50
53286;DHT22;39171;45.550;12.074;2023-04-25T10:07:05;16.90;78.70
53286;DHT22;39171;45.550;12.074;2023-04-25T10:13:06;16.90;78.80
53286;DHT22;39171;45.550;12.074;2023-04-25T10:19:09;16.90;79.00
53286;DHT22;39171;45.550;12.074;2023-04-25T10:25:10;16.90;79.30
53286;DHT22;39171;45.550;12.074;2023-04-25T10:31:12;16.80;79.20
53286;DHT22;39171;45.550;12.074;2023-04-25T10:37:17;16.90;79.10
53286;DHT22;39171;45.550;12.074;2023-04-25T10:49:42;16.90;78.30
53286;DHT22;39171;45.550;12.074;2023-04-25T10:55:50;16.90;78.50
53286;DHT22;39171;45.550;12.074;2023-04-25T11:01:52;16.90;77.90
53286;DHT22;39171;45.550;12.074;2023-04-25T11:07:55;17.00;77.70
53286;DHT22;39171;45.550;12.074;2023-04-25T11:14:00;16.90;78.20
53286;DHT22;39171;45.550;12.074;2023-04-25T11:20:01;16.90;78.10
53286;DHT22;39171;45.550;12.074;2023-04-25T11:26:07;17.00;77.70
53286;DHT22;39171;45.550;12.074;2023-04-25T11:32:08;17.00;78.00
53286;DHT22;39171;45.550;12.074;2023-04-25T11:38:10;17.00;78.20
53286;DHT22;39171;45.550;12.074;2023-04-25T11:44:11;17.00;78.40
53286;DHT22;39171;45.550;12.074;2023-04-25T11:50:13;17.00;78.40
53286;DHT22;39171;45.550;12.074;2023-04-25T11:56:15;17.00;78.30
53286;DHT22;39171;45.550;12.074;2023-04-25T12:02:25;17.00;78.40
53286;DHT22;39171;45.550;12.074;2023-04-25T12:08:27;17.00;78.10
53286;DHT22;39171;45.550;12.074;2023-04-25T12:14:32;17.00;78.40
53286;DHT22;39171;45.550;12.074;2023-04-25T12:20:34;17.00;78.20
53286;DHT22;39171;45.550;12.074;2023-04-25T12:26:49;17.10;78.20
53286;DHT22;39171;45.550;12.074;2023-04-25T12:32:51;17.00;78.30
53286;DHT22;39171;45.550;12.074;2023-04-25T12:38:52;17.10;78.20
53286;DHT22;39171;45.550;12.074;2023-04-25T12:44:53;17.10;77.90
53286;DHT22;39171;45.550;12.074;2023-04-25T12:50:55;17.20;78.10
53286;DHT22;39171;45.550;12.074;2023-04-25T12:56:56;17.10;77.90
53286;DHT22;39171;45.550;12.074;2023-04-25T13:02:57;17.20;77.80
53286;DHT22;39171;45.550;12.074;2023-04-25T13:08:58;17.10;78.00
53286;DHT22;39171;45.550;12.074;2023-04-25T13:14:59;17.20;78.00
53286;DHT22;39171;45.550;12.074;2023-04-25T13:21:01;17.20;78.10
53286;DHT22;39171;45.550;12.074;2023-04-25T13:27:02;17.10;77.90
53286;DHT22;39171;45.550;12.074;2023-04-25T13:33:04;17.10;77.90
53286;DHT22;39171;45.550;12.074;2023-04-25T13:39:07;17.10;78.00
53286;DHT22;39171;45.550;12.074;2023-04-25T13:45:08;17.10;78.20
53286;DHT22;39171;45.550;12.074;2023-04-25T13:51:09;17.10;78.10
53286;DHT22;39171;45.550;12.074;2023-04-25T13:57:12;17.10;78.00
53286;DHT22;39171;45.550;12.074;2023-04-25T14:03:13;17.10;78.10
53286;DHT22;39171;45.550;12.074;2023-04-25T14:09:14;17.10;78.10
53286;DHT22;39171;45.550;12.074;2023-04-25T14:15:16;17.10;78.10
53286;DHT22;39171;45.550;12.074;2023-04-25T14:21:17;17.10;78.10
53286;DHT22;39171;45.550;12.074;2023-04-25T14:27:18;17.10;78.10
53286;DHT22;39171;45.550;12.074;2023-04-25T14:33:20;17.10;78.10
53286;DHT22;39171;45.550;12.074;2023-04-25T14:39:21;17.10;77.90
53286;DHT22;39171;45.550;12.074;2023-04-25T14:45:22;17.10;78.00
53286;DHT22;39171;45.550;12.074;2023-04-25T14:51:23;17.10;78.30
53286;DHT22;39171;45.550;12.074;2023-04-25T14:57:24;17.10;78.60
53286;DHT22;39171;45.550;12.074;2023-04-25T15:03:26;17.10;78.30
53286;DHT22;39171;45.550;12.074;2023-04-25T15:09:27;17.10;78.30
53286;DHT22;39171;45.550;12.074;2023-04-25T15:15:28;17.10;78.80
53286;DHT22;39171;45.550;12.074;2023-04-25T15:21:32;17.10;78.40
53286;DHT22;39171;45.550;12.074;2023-04-25T15:27:37;17.10;78.30
53286;DHT22;39171;45.550;12.074;2023-04-25T15:33:41;17.00;78.70
53286;DHT22;39171;45.550;12.074;2023-04-25T15:39:43;17.10;78.90
53286;DHT22;39171;45.550;12.074;2023-04-25T15:45:44;17.10;78.80
53286;DHT22;39171;45.550;12.074;2023-04-25T15:51:46;17.00;79.40
53286;DHT22;39171;45.550;12.074;2023-04-25T15:57:48;17.10;79.50
53286;DHT22;39171;45.550;12.074;2023-04-25T16:03:49;17.00;79.80
53286;DHT22;39171;45.550;12.074;2023-04-25T16:09:51;17.00;80.00
53286;DHT22;39171;45.550;12.074;2023-04-25T16:15:52;17.00;80.20
53286;DHT22;39171;45.550;12.074;2023-04-25T16:21:53;17.00;79.60
53286;DHT22;39171;45.550;12.074;2023-04-25T16:27:55;17.00;79.50
53286;DHT22;39171;45.550;12.074;2023-04-25T16:33:56;17.00;79.80
53286;DHT22;39171;45.550;12.074;2023-04-25T16:39:57;17.00;79.20
53286;DHT22;39171;45.550;12.074;2023-04-25T16:45:58;17.00;79.00
53286;DHT22;39171;45.550;12.074;2023-04-25T16:52:00;17.00;78.90
53286;DHT22;39171;45.550;12.074;2023-04-25T16:58:01;17.00;78.90
53286;DHT22;39171;45.550;12.074;2023-04-25T17:04:03;17.00;78.70
53286;DHT22;39171;45.550;12.074;2023-04-25T17:10:04;17.00;79.00
53286;DHT22;39171;45.550;12.074;2023-04-25T17:16:05;17.00;79.30
53286;DHT22;39171;45.550;12.074;2023-04-25T17:22:07;17.00;79.30
53286;DHT22;39171;45.550;12.074;2023-04-25T17:28:09;17.00;79.10
53286;DHT22;39171;45.550;12.074;2023-04-25T17:34:10;17.00;79.50
53286;DHT22;39171;45.550;12.074;2023-04-25T17:40:16;17.00;79.60
53286;DHT22;39171;45.550;12.074;2023-04-25T17:46:17;17.00;79.40
53286;DHT22;39171;45.550;12.074;2023-04-25T17:52:19;17.00;79.30
53286;DHT22;39171;45.550;12.074;2023-04-25T17:58:20;17.00;79.30
53286;DHT22;39171;45.550;12.074;2023-04-25T18:04:21;17.00;79.60
53286;DHT22;39171;45.550;12.074;2023-04-25T18:10:22;16.90;79.40
53286;DHT22;39171;45.550;12.074;2023-04-25T18:16:24;17.00;79.50
53286;DHT22;39171;45.550;12.074;2023-04-25T18:22:25;16.90;80.10
53286;DHT22;39171;45.550;12.074;2023-04-25T18:28:27;16.90;79.90
53286;DHT22;39171;45.550;12.074;2023-04-25T18:34:29;16.90;79.70
53286;DHT22;39171;45.550;12.074;2023-04-25T18:40:30;16.90;79.60
53286;DHT22;39171;45.550;12.074;2023-04-25T18:46:32;16.90;79.20
53286;DHT22;39171;45.550;12.074;2023-04-25T18:52:33;16.90;79.30
53286;DHT22;39171;45.550;12.074;2023-04-25T18:58:34;16.90;79.10
53286;DHT22;39171;45.550;12.074;2023-04-25T19:04:35;16.90;78.40
53286;DHT22;39171;45.550;12.074;2023-04-25T19:10:37;16.80;78.90
53286;DHT22;39171;45.550;12.074;2023-04-25T19:16:38;16.90;79.00
53286;DHT22;39171;45.550;12.074;2023-04-25T19:22:39;16.80;78.70
53286;DHT22;39171;45.550;12.074;2023-04-25T19:28:41;16.80;78.60
53286;DHT22;39171;45.550;12.074;2023-04-25T19:34:43;16.80;78.80
53286;DHT22;39171;45.550;12.074;2023-04-25T19:40:44;16.80;78.70
53286;DHT22;39171;45.550;12.074;2023-04-25T19:46:45;16.80;78.60
53286;DHT22;39171;45.550;12.074;2023-04-25T19:52:49;16.80;78.60
53286;DHT22;39171;45.550;12.074;2023-04-25T19:58:50;16.80;78.70
53286;DHT22;39171;45.550;12.074;2023-04-25T20:04:51;16.70;78.70
53286;DHT22;39171;45.550;12.074;2023-04-25T20:10:52;16.80;78.60
53286;DHT22;39171;45.550;12.074;2023-04-25T20:16:54;16.70;78.70
53286;DHT22;39171;45.550;12.074;2023-04-25T20:22:55;16.70;78.60
53286;DHT22;39171;45.550;12.074;2023-04-25T20:28:56;16.70;78.60
53286;DHT22;39171;45.550;12.074;2023-04-25T20:35:02;16.70;78.60
53286;DHT22;39171;45.550;12.074;2023-04-25T20:41:03;16.70;78.60
53286;DHT22;39171;45.550;12.074;2023-04-25T20:47:05;16.70;78.70
53286;DHT22;39171;45.550;12.074;2023-04-25T20:53:06;16.70;78.80
53286;DHT22;39171;45.550;12.074;2023-04-25T20:59:08;16.70;78.80
53286;DHT22;39171;45.550;12.074;2023-04-25T21:05:09;16.70;78.80
53286;DHT22;39171;45.550;12.074;2023-04-25T21:11:11;16.70;79.10
53286;DHT22;39171;45.550;12.074;2023-04-25T21:17:12;16.70;79.40
53286;DHT22;39171;45.550;12.074;2023-04-25T21:23:13;16.70;79.40
53286;DHT22;39171;45.550;12.074;2023-04-25T21:29:15;16.60;79.20
53286;DHT22;39171;45.550;12.074;2023-04-25T21:35:17;16.60;79.20
53286;DHT22;39171;45.550;12.074;2023-04-25T21:41:21;16.70;79.00
53286;DHT22;39171;45.550;12.074;2023-04-25T21:47:22;16.60;79.00
53286;DHT22;39171;45.550;12.074;2023-04-25T21:53:24;16.60;79.20
53286;DHT22;39171;45.550;12.074;2023-04-25T21:59:26;16.60;79.00
53286;DHT22;39171;45.550;12.074;2023-04-25T22:05:28;16.60;78.70
53286;DHT22;39171;45.550;12.074;2023-04-25T22:11:29;16.60;78.90
53286;DHT22;39171;45.550;12.074;2023-04-25T22:17:30;16.60;79.60
53286;DHT22;39171;45.550;12.074;2023-04-25T22:23:33;16.60;79.90
53286;DHT22;39171;45.550;12.074;2023-04-25T22:29:36;16.50;80.40
53286;DHT22;39171;45.550;12.074;2023-04-25T22:35:37;16.50;80.80
53286;DHT22;39171;45.550;12.074;2023-04-25T22:41:38;16.50;80.80
53286;DHT22;39171;45.550;12.074;2023-04-25T22:47:39;16.50;80.60
53286;DHT22;39171;45.550;12.074;2023-04-25T22:53:41;16.50;80.40
53286;DHT22;39171;45.550;12.074;2023-04-25T22:59:42;16.50;80.00
53286;DHT22;39171;45.550;12.074;2023-04-25T23:05:44;16.50;79.80
53286;DHT22;39171;45.550;12.074;2023-04-25T23:11:46;16.50;79.70
53286;DHT22;39171;45.550;12.074;2023-04-25T23:17:48;16.50;79.50
53286;DHT22;39171;45.550;12.074;2023-04-25T23:23:49;16.40;79.70
53286;DHT22;39171;45.550;12.074;2023-04-25T23:29:51;16.50;79.50
53286;DHT22;39171;45.550;12.074;2023-04-25T23:35:54;16.40;79.40
53286;DHT22;39171;45.550;12.074;2023-04-25T23:41:56;16.40;79.40
53286;DHT22;39171;45.550;12.074;2023-04-25T23:47:57;16.40;79.30
53286;DHT22;39171;45.550;12.074;2023-04-25T23:53:58;16.40;79.30
